sensor_id;sensor_type;location;lat;lon;timestamp;P1;durP1;ratioP1;P2;durP2;ratioP2
2912;SDS011;1466;48.778;9.166;2022-10-22T00:00:09;14.53;;;4.30;;
2912;SDS011;1466;48.778;9.166;2022-10-22T00:02:37;11.18;;;3.78;;
2912;SDS011;1466;48.778;9.166;2022-10-22T00:05:03;6.60;;;3.40;;
2912;SDS011;1466;48.778;9.166;2022-10-22T00:07:29;10.60;;;4.05;;
2912;SDS011;1466;48.778;9.166;2022-10-22T00:09:55;12.33;;;4.30;;
2912;SDS011;1466;48.778;9.166;2022-10-22T00:12:20;7.33;;;3.23;;
2912;SDS011;1466;48.778;9.166;2022-10-22T00:14:46;9.87;;;3.67;;
2912;SDS011;1466;48.778;9.166;2022-10-22T00:17:12;9.20;;;4.40;;
2912;SDS011;1466;48.778;9.166;2022-10-22T00:19:38;10.07;;;3.80;;
2912;SDS011;1466;48.778;9.166;2022-10-22T00:22:04;16.80;;;4.35;;
2912;SDS011;1466;48.778;9.166;2022-10-22T00:24:31;12.48;;;4.35;;
2912;SDS011;1466;48.778;9.166;2022-10-22T00:26:58;8.32;;;3.75;;
2912;SDS011;1466;48.778;9.166;2022-10-22T00:29:23;7.80;;;3.60;;
2912;SDS011;1466;48.778;9.166;2022-10-22T00:31:49;15.70;;;4.90;;
2912;SDS011;1466;48.778;9.166;2022-10-22T00:34:19;11.13;;;4.03;;
2912;SDS011;1466;48.778;9.166;2022-10-22T00:36:46;9.27;;;3.80;;
2912;SDS011;1466;48.778;9.166;2022-10-22T00:39:13;13.27;;;4.10;;
2912;SDS011;1466;48.778;9.166;2022-10-22T00:41:41;7.43;;;3.53;;
2912;SDS011;1466;48.778;9.166;2022-10-22T00:44:57;12.18;;;3.65;;
2912;SDS011;1466;48.778;9.166;2022-10-22T00:47:12;6.68;;;3.50;;
2912;SDS011;1466;48.778;9.166;2022-10-22T00:49:39;10.90;;;4.00;;
2912;SDS011;1466;48.778;9.166;2022-10-22T00:52:05;8.57;;;3.63;;
2912;SDS011;1466;48.778;9.166;2022-10-22T00:54:31;11.80;;;4.20;;
2912;SDS011;1466;48.778;9.166;2022-10-22T00:56:57;10.32;;;3.97;;
2912;SDS011;1466;48.778;9.166;2022-10-22T00:59:24;8.73;;;3.65;;
2912;SDS011;1466;48.778;9.166;2022-10-22T01:01:49;17.57;;;5.10;;
2912;SDS011;1466;48.778;9.166;2022-10-22T01:04:16;10.77;;;4.03;;
2912;SDS011;1466;48.778;9.166;2022-10-22T01:06:42;12.15;;;4.18;;
2912;SDS011;1466;48.778;9.166;2022-10-22T01:09:23;15.13;;;4.67;;
2912;SDS011;1466;48.778;9.166;2022-10-22T01:12:17;9.52;;;3.80;;
2912;SDS011;1466;48.778;9.166;2022-10-22T01:22:43;10.05;;;3.88;;
2912;SDS011;1466;48.778;9.166;2022-10-22T01:25:23;10.45;;;3.67;;
2912;SDS011;1466;48.778;9.166;2022-10-22T01:28:07;15.00;;;4.75;;
2912;SDS011;1466;48.778;9.166;2022-10-22T01:30:36;9.75;;;3.70;;
2912;SDS011;1466;48.778;9.166;2022-10-22T01:33:04;14.93;;;4.47;;
2912;SDS011;1466;48.778;9.166;2022-10-22T01:35:34;12.35;;;4.15;;
2912;SDS011;1466;48.778;9.166;2022-10-22T01:38:06;12.55;;;4.38;;
2912;SDS011;1466;48.778;9.166;2022-10-22T01:40:36;11.63;;;4.20;;
2912;SDS011;1466;48.778;9.166;2022-10-22T01:43:07;8.32;;;3.85;;
2912;SDS011;1466;48.778;9.166;2022-10-22T01:45:36;13.10;;;4.10;;
2912;SDS011;1466;48.778;9.166;2022-10-22T01:57:18;8.60;;;3.67;;
2912;SDS011;1466;48.778;9.166;2022-10-22T02:00:07;13.20;;;4.22;;
2912;SDS011;1466;48.778;9.166;2022-10-22T02:02:40;9.40;;;3.63;;
2912;SDS011;1466;48.778;9.166;2022-10-22T02:05:29;11.88;;;4.10;;
2912;SDS011;1466;48.778;9.166;2022-10-22T02:08:09;11.18;;;4.10;;
2912;SDS011;1466;48.778;9.166;2022-10-22T02:10:39;11.07;;;4.07;;
2912;SDS011;1466;48.778;9.166;2022-10-22T02:13:08;10.50;;;4.03;;
2912;SDS011;1466;48.778;9.166;2022-10-22T02:15:39;8.63;;;3.60;;
2912;SDS011;1466;48.778;9.166;2022-10-22T02:18:09;17.35;;;4.85;;
2912;SDS011;1466;48.778;9.166;2022-10-22T02:20:37;8.63;;;3.60;;
2912;SDS011;1466;48.778;9.166;2022-10-22T02:23:05;9.70;;;3.95;;
2912;SDS011;1466;48.778;9.166;2022-10-22T02:25:35;9.63;;;3.80;;
2912;SDS011;1466;48.778;9.166;2022-10-22T02:28:09;24.35;;;7.45;;
2912;SDS011;1466;48.778;9.166;2022-10-22T02:30:45;8.38;;;3.78;;
2912;SDS011;1466;48.778;9.166;2022-10-22T02:33:21;12.48;;;4.28;;
2912;SDS011;1466;48.778;9.166;2022-10-22T02:35:55;7.13;;;3.75;;
2912;SDS011;1466;48.778;9.166;2022-10-22T02:38:22;8.30;;;4.07;;
2912;SDS011;1466;48.778;9.166;2022-10-22T02:40:49;7.22;;;3.45;;
2912;SDS011;1466;48.778;9.166;2022-10-22T02:43:16;12.90;;;3.83;;
2912;SDS011;1466;48.778;9.166;2022-10-22T02:45:43;13.15;;;3.70;;
2912;SDS011;1466;48.778;9.166;2022-10-22T02:48:08;10.60;;;3.80;;
2912;SDS011;1466;48.778;9.166;2022-10-22T02:50:34;12.63;;;4.30;;
2912;SDS011;1466;48.778;9.166;2022-10-22T02:53:00;10.48;;;3.72;;
2912;SDS011;1466;48.778;9.166;2022-10-22T02:55:26;11.20;;;4.07;;
2912;SDS011;1466;48.778;9.166;2022-10-22T02:57:51;10.03;;;3.83;;
2912;SDS011;1466;48.778;9.166;2022-10-22T03:00:17;9.37;;;3.80;;
2912;SDS011;1466;48.778;9.166;2022-10-22T03:02:43;7.13;;;3.28;;
2912;SDS011;1466;48.778;9.166;2022-10-22T03:05:08;28.73;;;5.63;;
2912;SDS011;1466;48.778;9.166;2022-10-22T03:07:34;9.70;;;3.70;;
2912;SDS011;1466;48.778;9.166;2022-10-22T03:10:00;9.67;;;3.80;;
2912;SDS011;1466;48.778;9.166;2022-10-22T03:12:25;9.30;;;3.40;;
2912;SDS011;1466;48.778;9.166;2022-10-22T03:14:51;10.60;;;4.07;;
2912;SDS011;1466;48.778;9.166;2022-10-22T03:17:17;11.57;;;4.20;;
2912;SDS011;1466;48.778;9.166;2022-10-22T03:19:42;12.33;;;4.20;;
2912;SDS011;1466;48.778;9.166;2022-10-22T03:22:29;13.40;;;4.57;;
2912;SDS011;1466;48.778;9.166;2022-10-22T03:24:57;8.25;;;3.50;;
2912;SDS011;1466;48.778;9.166;2022-10-22T03:27:27;9.25;;;3.70;;
2912;SDS011;1466;48.778;9.166;2022-10-22T03:29:53;13.38;;;4.53;;
2912;SDS011;1466;48.778;9.166;2022-10-22T03:32:20;9.95;;;3.80;;
2912;SDS011;1466;48.778;9.166;2022-10-22T03:34:46;12.13;;;4.13;;
2912;SDS011;1466;48.778;9.166;2022-10-22T03:37:11;9.90;;;3.30;;
2912;SDS011;1466;48.778;9.166;2022-10-22T03:39:37;11.00;;;3.80;;
2912;SDS011;1466;48.778;9.166;2022-10-22T03:42:03;12.23;;;4.10;;
2912;SDS011;1466;48.778;9.166;2022-10-22T03:44:30;15.23;;;4.43;;
2912;SDS011;1466;48.778;9.166;2022-10-22T03:46:57;15.98;;;4.45;;
2912;SDS011;1466;48.778;9.166;2022-10-22T03:49:22;7.37;;;3.57;;
2912;SDS011;1466;48.778;9.166;2022-10-22T03:51:48;7.83;;;3.73;;
2912;SDS011;1466;48.778;9.166;2022-10-22T03:54:14;11.07;;;3.93;;
2912;SDS011;1466;48.778;9.166;2022-10-22T03:56:40;12.35;;;4.25;;
2912;SDS011;1466;48.778;9.166;2022-10-22T03:59:06;8.33;;;3.70;;
2912;SDS011;1466;48.778;9.166;2022-10-22T04:01:32;9.33;;;3.40;;
2912;SDS011;1466;48.778;9.166;2022-10-22T04:03:58;19.73;;;5.60;;
2912;SDS011;1466;48.778;9.166;2022-10-22T04:06:23;8.13;;;3.63;;
2912;SDS011;1466;48.778;9.166;2022-10-22T04:08:49;13.43;;;4.67;;
2912;SDS011;1466;48.778;9.166;2022-10-22T04:11:15;7.53;;;3.57;;
2912;SDS011;1466;48.778;9.166;2022-10-22T04:13:41;11.13;;;4.00;;
2912;SDS011;1466;48.778;9.166;2022-10-22T04:18:40;7.72;;;3.55;;
2912;SDS011;1466;48.778;9.166;2022-10-22T04:21:08;16.98;;;4.68;;
2912;SDS011;1466;48.778;9.166;2022-10-22T04:23:34;6.38;;;3.35;;
2912;SDS011;1466;48.778;9.166;2022-10-22T04:26:01;10.37;;;3.97;;
2912;SDS011;1466;48.778;9.166;2022-10-22T04:28:28;15.52;;;4.63;;
2912;SDS011;1466;48.778;9.166;2022-10-22T04:30:53;10.90;;;4.07;;
2912;SDS011;1466;48.778;9.166;2022-10-22T04:33:19;20.93;;;5.60;;
2912;SDS011;1466;48.778;9.166;2022-10-22T04:35:45;7.30;;;3.70;;
2912;SDS011;1466;48.778;9.166;2022-10-22T04:38:11;22.23;;;5.77;;
2912;SDS011;1466;48.778;9.166;2022-10-22T04:40:37;11.13;;;4.20;;
2912;SDS011;1466;48.778;9.166;2022-10-22T04:43:02;9.60;;;4.07;;
2912;SDS011;1466;48.778;9.166;2022-10-22T04:45:28;7.23;;;3.60;;
2912;SDS011;1466;48.778;9.166;2022-10-22T04:47:54;7.00;;;3.23;;
2912;SDS011;1466;48.778;9.166;2022-10-22T04:50:20;7.72;;;3.75;;
2912;SDS011;1466;48.778;9.166;2022-10-22T04:52:46;6.67;;;3.33;;
2912;SDS011;1466;48.778;9.166;2022-10-22T04:55:11;14.33;;;4.70;;
2912;SDS011;1466;48.778;9.166;2022-10-22T04:57:37;11.43;;;4.13;;
2912;SDS011;1466;48.778;9.166;2022-10-22T05:00:03;18.73;;;5.23;;
2912;SDS011;1466;48.778;9.166;2022-10-22T05:02:29;8.60;;;3.40;;
2912;SDS011;1466;48.778;9.166;2022-10-22T05:04:55;16.80;;;5.00;;
2912;SDS011;1466;48.778;9.166;2022-10-22T05:07:20;6.40;;;3.23;;
2912;SDS011;1466;48.778;9.166;2022-10-22T05:09:47;12.30;;;4.28;;
2912;SDS011;1466;48.778;9.166;2022-10-22T05:12:13;8.33;;;3.97;;
2912;SDS011;1466;48.778;9.166;2022-10-22T05:14:39;11.80;;;4.10;;
2912;SDS011;1466;48.778;9.166;2022-10-22T05:17:04;9.53;;;3.83;;
2912;SDS011;1466;48.778;9.166;2022-10-22T05:19:30;13.67;;;4.43;;
2912;SDS011;1466;48.778;9.166;2022-10-22T05:21:58;16.30;;;4.93;;
2912;SDS011;1466;48.778;9.166;2022-10-22T05:24:25;9.98;;;4.00;;
2912;SDS011;1466;48.778;9.166;2022-10-22T05:26:52;9.65;;;3.38;;
2912;SDS011;1466;48.778;9.166;2022-10-22T05:29:19;11.82;;;4.32;;
2912;SDS011;1466;48.778;9.166;2022-10-22T05:31:44;11.90;;;4.17;;
2912;SDS011;1466;48.778;9.166;2022-10-22T05:34:10;13.23;;;4.17;;
2912;SDS011;1466;48.778;9.166;2022-10-22T05:36:36;7.35;;;3.35;;
2912;SDS011;1466;48.778;9.166;2022-10-22T05:39:02;9.40;;;3.63;;
2912;SDS011;1466;48.778;9.166;2022-10-22T05:41:29;7.97;;;3.67;;
2912;SDS011;1466;48.778;9.166;2022-10-22T05:43:57;11.80;;;4.50;;
2912;SDS011;1466;48.778;9.166;2022-10-22T05:46:24;13.50;;;4.53;;
2912;SDS011;1466;48.778;9.166;2022-10-22T05:48:55;12.82;;;4.32;;
2912;SDS011;1466;48.778;9.166;2022-10-22T05:51:23;7.45;;;3.60;;
2912;SDS011;1466;48.778;9.166;2022-10-22T05:53:54;5.75;;;3.15;;
2912;SDS011;1466;48.778;9.166;2022-10-22T05:56:27;12.90;;;4.40;;
2912;SDS011;1466;48.778;9.166;2022-10-22T05:58:54;6.60;;;3.35;;
2912;SDS011;1466;48.778;9.166;2022-10-22T06:01:22;14.50;;;4.72;;
2912;SDS011;1466;48.778;9.166;2022-10-22T06:03:52;12.82;;;4.47;;
2912;SDS011;1466;48.778;9.166;2022-10-22T06:06:20;5.35;;;3.08;;
2912;SDS011;1466;48.778;9.166;2022-10-22T06:08:50;14.20;;;4.47;;
2912;SDS011;1466;48.778;9.166;2022-10-22T06:11:17;16.20;;;4.78;;
2912;SDS011;1466;48.778;9.166;2022-10-22T06:13:44;11.15;;;3.70;;
2912;SDS011;1466;48.778;9.166;2022-10-22T06:16:09;9.35;;;4.05;;
2912;SDS011;1466;48.778;9.166;2022-10-22T06:18:35;8.43;;;3.80;;
2912;SDS011;1466;48.778;9.166;2022-10-22T06:21:08;6.30;;;3.23;;
2912;SDS011;1466;48.778;9.166;2022-10-22T06:23:37;11.02;;;4.32;;
2912;SDS011;1466;48.778;9.166;2022-10-22T06:26:03;12.20;;;4.20;;
2912;SDS011;1466;48.778;9.166;2022-10-22T06:28:29;11.00;;;3.97;;
2912;SDS011;1466;48.778;9.166;2022-10-22T06:30:58;8.63;;;3.88;;
2912;SDS011;1466;48.778;9.166;2022-10-22T06:33:25;6.78;;;3.58;;
2912;SDS011;1466;48.778;9.166;2022-10-22T06:35:52;12.60;;;4.32;;
2912;SDS011;1466;48.778;9.166;2022-10-22T06:38:20;22.10;;;6.07;;
2912;SDS011;1466;48.778;9.166;2022-10-22T06:40:45;11.77;;;4.45;;
2912;SDS011;1466;48.778;9.166;2022-10-22T06:43:11;21.50;;;5.67;;
2912;SDS011;1466;48.778;9.166;2022-10-22T06:45:38;12.43;;;4.40;;
2912;SDS011;1466;48.778;9.166;2022-10-22T06:48:04;11.20;;;4.30;;
2912;SDS011;1466;48.778;9.166;2022-10-22T06:50:30;13.60;;;4.60;;
2912;SDS011;1466;48.778;9.166;2022-10-22T06:52:57;10.57;;;4.05;;
2912;SDS011;1466;48.778;9.166;2022-10-22T06:55:23;18.90;;;5.50;;
2912;SDS011;1466;48.778;9.166;2022-10-22T06:57:48;6.87;;;3.50;;
2912;SDS011;1466;48.778;9.166;2022-10-22T07:00:16;14.45;;;4.63;;
2912;SDS011;1466;48.778;9.166;2022-10-22T07:02:42;13.20;;;4.60;;
2912;SDS011;1466;48.778;9.166;2022-10-22T07:05:08;10.80;;;3.97;;
2912;SDS011;1466;48.778;9.166;2022-10-22T07:07:33;13.70;;;4.10;;
2912;SDS011;1466;48.778;9.166;2022-10-22T07:09:59;14.10;;;4.63;;
2912;SDS011;1466;48.778;9.166;2022-10-22T07:12:25;9.13;;;4.33;;
2912;SDS011;1466;48.778;9.166;2022-10-22T07:14:50;8.47;;;3.60;;
2912;SDS011;1466;48.778;9.166;2022-10-22T07:17:16;16.20;;;5.00;;
2912;SDS011;1466;48.778;9.166;2022-10-22T07:19:41;11.90;;;4.33;;
2912;SDS011;1466;48.778;9.166;2022-10-22T07:22:07;12.50;;;4.43;;
2912;SDS011;1466;48.778;9.166;2022-10-22T07:24:33;11.20;;;4.37;;
2912;SDS011;1466;48.778;9.166;2022-10-22T07:26:58;14.57;;;4.87;;
2912;SDS011;1466;48.778;9.166;2022-10-22T07:29:24;8.00;;;3.80;;
2912;SDS011;1466;48.778;9.166;2022-10-22T07:31:49;9.67;;;3.90;;
2912;SDS011;1466;48.778;9.166;2022-10-22T07:34:15;8.40;;;3.70;;
2912;SDS011;1466;48.778;9.166;2022-10-22T07:36:41;12.53;;;4.60;;
2912;SDS011;1466;48.778;9.166;2022-10-22T07:39:06;6.30;;;3.33;;
2912;SDS011;1466;48.778;9.166;2022-10-22T07:41:32;9.33;;;3.83;;
2912;SDS011;1466;48.778;9.166;2022-10-22T07:43:57;13.90;;;4.80;;
2912;SDS011;1466;48.778;9.166;2022-10-22T07:46:23;9.67;;;4.07;;
2912;SDS011;1466;48.778;9.166;2022-10-22T07:48:50;7.65;;;3.75;;
2912;SDS011;1466;48.778;9.166;2022-10-22T07:51:16;10.23;;;4.00;;
2912;SDS011;1466;48.778;9.166;2022-10-22T07:53:42;20.00;;;5.72;;
2912;SDS011;1466;48.778;9.166;2022-10-22T07:56:07;14.87;;;4.93;;
2912;SDS011;1466;48.778;9.166;2022-10-22T07:58:33;14.23;;;5.00;;
2912;SDS011;1466;48.778;9.166;2022-10-22T08:00:59;17.70;;;5.57;;
2912;SDS011;1466;48.778;9.166;2022-10-22T08:03:26;8.02;;;3.97;;
2912;SDS011;1466;48.778;9.166;2022-10-22T08:05:52;10.02;;;3.80;;
2912;SDS011;1466;48.778;9.166;2022-10-22T08:08:18;13.35;;;4.40;;
2912;SDS011;1466;48.778;9.166;2022-10-22T08:10:45;12.33;;;4.50;;
2912;SDS011;1466;48.778;9.166;2022-10-22T08:13:12;16.30;;;5.13;;
2912;SDS011;1466;48.778;9.166;2022-10-22T08:15:37;15.05;;;5.10;;
2912;SDS011;1466;48.778;9.166;2022-10-22T08:18:03;15.03;;;4.83;;
2912;SDS011;1466;48.778;9.166;2022-10-22T08:20:29;15.30;;;4.93;;
2912;SDS011;1466;48.778;9.166;2022-10-22T08:22:54;21.53;;;5.67;;
2912;SDS011;1466;48.778;9.166;2022-10-22T08:25:20;15.37;;;4.97;;
2912;SDS011;1466;48.778;9.166;2022-10-22T08:27:45;18.50;;;5.63;;
2912;SDS011;1466;48.778;9.166;2022-10-22T08:30:11;18.57;;;5.63;;
2912;SDS011;1466;48.778;9.166;2022-10-22T08:32:37;23.65;;;4.90;;
2912;SDS011;1466;48.778;9.166;2022-10-22T08:35:03;14.30;;;5.00;;
2912;SDS011;1466;48.778;9.166;2022-10-22T08:37:28;15.73;;;5.27;;
2912;SDS011;1466;48.778;9.166;2022-10-22T08:39:54;17.73;;;5.47;;
2912;SDS011;1466;48.778;9.166;2022-10-22T08:50:18;14.77;;;5.20;;
2912;SDS011;1466;48.778;9.166;2022-10-22T08:52:48;10.68;;;4.53;;
2912;SDS011;1466;48.778;9.166;2022-10-22T08:55:19;9.88;;;4.07;;
2912;SDS011;1466;48.778;9.166;2022-10-22T08:57:53;14.40;;;5.30;;
2912;SDS011;1466;48.778;9.166;2022-10-22T09:00:32;17.95;;;5.22;;
2912;SDS011;1466;48.778;9.166;2022-10-22T09:08:23;19.48;;;5.90;;
2912;SDS011;1466;48.778;9.166;2022-10-22T09:10:57;13.30;;;4.93;;
2912;SDS011;1466;48.778;9.166;2022-10-22T09:13:28;18.13;;;5.88;;
2912;SDS011;1466;48.778;9.166;2022-10-22T09:15:55;19.05;;;5.95;;
2912;SDS011;1466;48.778;9.166;2022-10-22T09:19:18;17.10;;;5.40;;
2912;SDS011;1466;48.778;9.166;2022-10-22T09:26:16;12.57;;;4.83;;
2912;SDS011;1466;48.778;9.166;2022-10-22T09:28:41;14.53;;;5.20;;
2912;SDS011;1466;48.778;9.166;2022-10-22T09:31:11;11.10;;;4.60;;
2912;SDS011;1466;48.778;9.166;2022-10-22T09:33:38;9.23;;;4.28;;
2912;SDS011;1466;48.778;9.166;2022-10-22T09:36:05;18.15;;;5.97;;
2912;SDS011;1466;48.778;9.166;2022-10-22T09:38:33;23.98;;;6.07;;
2912;SDS011;1466;48.778;9.166;2022-10-22T09:41:09;19.05;;;5.55;;
2912;SDS011;1466;48.778;9.166;2022-10-22T09:43:34;18.73;;;5.83;;
2912;SDS011;1466;48.778;9.166;2022-10-22T09:46:01;17.83;;;6.17;;
2912;SDS011;1466;48.778;9.166;2022-10-22T09:48:36;11.80;;;4.85;;
2912;SDS011;1466;48.778;9.166;2022-10-22T09:51:12;21.35;;;6.50;;
2912;SDS011;1466;48.778;9.166;2022-10-22T09:53:45;16.33;;;6.07;;
2912;SDS011;1466;48.778;9.166;2022-10-22T09:58:59;22.30;;;6.63;;
2912;SDS011;1466;48.778;9.166;2022-10-22T10:01:26;15.07;;;5.20;;
2912;SDS011;1466;48.778;9.166;2022-10-22T10:03:56;14.57;;;5.03;;
2912;SDS011;1466;48.778;9.166;2022-10-22T10:06:31;20.57;;;6.30;;
2912;SDS011;1466;48.778;9.166;2022-10-22T10:09:18;13.50;;;5.00;;
2912;SDS011;1466;48.778;9.166;2022-10-22T10:17:32;14.33;;;5.57;;
2912;SDS011;1466;48.778;9.166;2022-10-22T10:25:33;13.20;;;5.40;;
2912;SDS011;1466;48.778;9.166;2022-10-22T10:31:19;6.00;;;3.87;;
2912;SDS011;1466;48.778;9.166;2022-10-22T10:50:40;10.43;;;4.60;;
2912;SDS011;1466;48.778;9.166;2022-10-22T11:02:32;6.23;;;3.90;;
2912;SDS011;1466;48.778;9.166;2022-10-22T11:06:53;9.63;;;4.33;;
2912;SDS011;1466;48.778;9.166;2022-10-22T11:09:26;7.23;;;3.83;;
2912;SDS011;1466;48.778;9.166;2022-10-22T11:12:01;10.10;;;4.77;;
2912;SDS011;1466;48.778;9.166;2022-10-22T11:14:31;13.10;;;5.20;;
2912;SDS011;1466;48.778;9.166;2022-10-22T11:17:09;11.37;;;4.43;;
2912;SDS011;1466;48.778;9.166;2022-10-22T11:24:55;9.63;;;4.60;;
2912;SDS011;1466;48.778;9.166;2022-10-22T11:27:36;11.73;;;4.90;;
2912;SDS011;1466;48.778;9.166;2022-10-22T11:30:13;11.20;;;4.90;;
2912;SDS011;1466;48.778;9.166;2022-10-22T11:32:46;11.97;;;4.60;;
2912;SDS011;1466;48.778;9.166;2022-10-22T11:35:19;14.30;;;5.10;;
2912;SDS011;1466;48.778;9.166;2022-10-22T11:37:49;16.60;;;7.50;;
2912;SDS011;1466;48.778;9.166;2022-10-22T11:50:25;14.40;;;5.00;;
2912;SDS011;1466;48.778;9.166;2022-10-22T12:16:22;18.57;;;6.03;;
2912;SDS011;1466;48.778;9.166;2022-10-22T12:18:52;9.20;;;4.33;;
2912;SDS011;1466;48.778;9.166;2022-10-22T12:21:22;24.53;;;5.37;;
2912;SDS011;1466;48.778;9.166;2022-10-22T12:23:48;7.83;;;4.27;;
2912;SDS011;1466;48.778;9.166;2022-10-22T12:26:49;9.47;;;4.50;;
2912;SDS011;1466;48.778;9.166;2022-10-22T12:29:10;18.87;;;5.53;;
2912;SDS011;1466;48.778;9.166;2022-10-22T12:31:38;9.83;;;4.70;;
2912;SDS011;1466;48.778;9.166;2022-10-22T12:34:05;12.90;;;5.33;;
2912;SDS011;1466;48.778;9.166;2022-10-22T12:36:32;13.50;;;4.33;;
2912;SDS011;1466;48.778;9.166;2022-10-22T12:38:59;10.70;;;4.77;;
2912;SDS011;1466;48.778;9.166;2022-10-22T12:41:33;7.50;;;4.50;;
2912;SDS011;1466;48.778;9.166;2022-10-22T12:44:01;12.47;;;4.83;;
2912;SDS011;1466;48.778;9.166;2022-10-22T12:46:28;20.17;;;6.50;;
2912;SDS011;1466;48.778;9.166;2022-10-22T12:48:58;15.17;;;5.00;;
2912;SDS011;1466;48.778;9.166;2022-10-22T12:51:42;11.60;;;4.90;;
2912;SDS011;1466;48.778;9.166;2022-10-22T12:54:12;17.47;;;6.13;;
2912;SDS011;1466;48.778;9.166;2022-10-22T12:56:42;20.00;;;6.23;;
2912;SDS011;1466;48.778;9.166;2022-10-22T12:59:23;22.33;;;6.60;;
2912;SDS011;1466;48.778;9.166;2022-10-22T13:01:51;8.67;;;4.50;;
2912;SDS011;1466;48.778;9.166;2022-10-22T13:04:34;19.17;;;6.67;;
2912;SDS011;1466;48.778;9.166;2022-10-22T13:09:46;18.20;;;5.73;;
2912;SDS011;1466;48.778;9.166;2022-10-22T13:12:23;15.23;;;5.40;;
2912;SDS011;1466;48.778;9.166;2022-10-22T13:14:50;20.30;;;5.63;;
2912;SDS011;1466;48.778;9.166;2022-10-22T13:17:17;13.67;;;5.20;;
2912;SDS011;1466;48.778;9.166;2022-10-22T13:22:34;15.97;;;5.43;;
2912;SDS011;1466;48.778;9.166;2022-10-22T13:27:44;11.53;;;5.20;;
2912;SDS011;1466;48.778;9.166;2022-10-22T13:30:17;18.10;;;6.00;;
2912;SDS011;1466;48.778;9.166;2022-10-22T13:32:49;15.73;;;6.03;;
2912;SDS011;1466;48.778;9.166;2022-10-22T13:35:17;14.67;;;5.50;;
2912;SDS011;1466;48.778;9.166;2022-10-22T13:37:46;13.30;;;5.37;;
2912;SDS011;1466;48.778;9.166;2022-10-22T13:40:12;11.73;;;4.70;;
2912;SDS011;1466;48.778;9.166;2022-10-22T13:42:38;18.20;;;6.50;;
2912;SDS011;1466;48.778;9.166;2022-10-22T13:45:04;21.30;;;6.57;;
2912;SDS011;1466;48.778;9.166;2022-10-22T13:47:30;12.20;;;5.00;;
2912;SDS011;1466;48.778;9.166;2022-10-22T13:50:03;17.17;;;6.00;;
2912;SDS011;1466;48.778;9.166;2022-10-22T13:57:49;13.27;;;5.33;;
2912;SDS011;1466;48.778;9.166;2022-10-22T14:00:18;10.13;;;4.63;;
2912;SDS011;1466;48.778;9.166;2022-10-22T14:02:45;16.80;;;6.00;;
2912;SDS011;1466;48.778;9.166;2022-10-22T14:05:13;12.23;;;5.13;;
2912;SDS011;1466;48.778;9.166;2022-10-22T14:07:40;14.90;;;6.07;;
2912;SDS011;1466;48.778;9.166;2022-10-22T14:10:13;12.83;;;5.17;;
2912;SDS011;1466;48.778;9.166;2022-10-22T14:12:40;20.63;;;6.17;;
2912;SDS011;1466;48.778;9.166;2022-10-22T14:15:07;17.03;;;5.83;;
2912;SDS011;1466;48.778;9.166;2022-10-22T14:17:34;12.83;;;5.50;;
2912;SDS011;1466;48.778;9.166;2022-10-22T14:20:00;16.10;;;5.70;;
2912;SDS011;1466;48.778;9.166;2022-10-22T14:22:26;18.63;;;6.93;;
2912;SDS011;1466;48.778;9.166;2022-10-22T14:24:52;13.27;;;5.10;;
2912;SDS011;1466;48.778;9.166;2022-10-22T14:27:18;19.97;;;6.67;;
2912;SDS011;1466;48.778;9.166;2022-10-22T14:29:44;23.00;;;7.07;;
2912;SDS011;1466;48.778;9.166;2022-10-22T14:32:11;16.63;;;5.73;;
2912;SDS011;1466;48.778;9.166;2022-10-22T14:34:38;19.33;;;6.87;;
2912;SDS011;1466;48.778;9.166;2022-10-22T14:37:04;19.83;;;6.23;;
2912;SDS011;1466;48.778;9.166;2022-10-22T14:39:37;20.13;;;6.40;;
2912;SDS011;1466;48.778;9.166;2022-10-22T14:42:03;16.60;;;6.50;;
2912;SDS011;1466;48.778;9.166;2022-10-22T14:44:29;17.10;;;6.43;;
2912;SDS011;1466;48.778;9.166;2022-10-22T14:46:54;17.53;;;6.27;;
2912;SDS011;1466;48.778;9.166;2022-10-22T14:49:20;18.70;;;6.60;;
2912;SDS011;1466;48.778;9.166;2022-10-22T14:51:46;18.93;;;7.07;;
2912;SDS011;1466;48.778;9.166;2022-10-22T14:54:11;13.43;;;5.53;;
2912;SDS011;1466;48.778;9.166;2022-10-22T14:56:37;20.20;;;6.73;;
2912;SDS011;1466;48.778;9.166;2022-10-22T14:59:02;18.40;;;6.27;;
2912;SDS011;1466;48.778;9.166;2022-10-22T15:01:28;16.03;;;5.57;;
2912;SDS011;1466;48.778;9.166;2022-10-22T15:03:53;28.40;;;7.77;;
2912;SDS011;1466;48.778;9.166;2022-10-22T15:06:19;25.63;;;7.10;;
2912;SDS011;1466;48.778;9.166;2022-10-22T15:08:45;10.70;;;4.80;;
2912;SDS011;1466;48.778;9.166;2022-10-22T15:11:10;9.73;;;4.87;;
2912;SDS011;1466;48.778;9.166;2022-10-22T15:13:36;12.60;;;5.40;;
2912;SDS011;1466;48.778;9.166;2022-10-22T15:16:06;17.47;;;6.30;;
2912;SDS011;1466;48.778;9.166;2022-10-22T15:18:33;16.70;;;5.83;;
2912;SDS011;1466;48.778;9.166;2022-10-22T15:21:00;14.50;;;5.90;;
2912;SDS011;1466;48.778;9.166;2022-10-22T15:23:28;23.10;;;7.13;;
2912;SDS011;1466;48.778;9.166;2022-10-22T15:25:54;13.13;;;5.70;;
2912;SDS011;1466;48.778;9.166;2022-10-22T15:28:20;19.37;;;6.80;;
2912;SDS011;1466;48.778;9.166;2022-10-22T15:30:54;19.13;;;7.00;;
2912;SDS011;1466;48.778;9.166;2022-10-22T15:33:21;16.47;;;6.23;;
2912;SDS011;1466;48.778;9.166;2022-10-22T15:35:47;15.17;;;5.77;;
2912;SDS011;1466;48.778;9.166;2022-10-22T15:38:13;20.63;;;6.43;;
2912;SDS011;1466;48.778;9.166;2022-10-22T15:40:38;21.03;;;7.30;;
2912;SDS011;1466;48.778;9.166;2022-10-22T15:43:04;15.53;;;5.87;;
2912;SDS011;1466;48.778;9.166;2022-10-22T15:45:29;12.47;;;5.30;;
2912;SDS011;1466;48.778;9.166;2022-10-22T15:47:55;30.43;;;8.57;;
2912;SDS011;1466;48.778;9.166;2022-10-22T15:50:20;18.70;;;6.63;;
2912;SDS011;1466;48.778;9.166;2022-10-22T15:52:46;18.07;;;6.07;;
2912;SDS011;1466;48.778;9.166;2022-10-22T15:55:11;32.37;;;8.20;;
2912;SDS011;1466;48.778;9.166;2022-10-22T15:57:37;23.83;;;6.80;;
2912;SDS011;1466;48.778;9.166;2022-10-22T16:00:03;27.33;;;7.73;;
2912;SDS011;1466;48.778;9.166;2022-10-22T16:02:29;20.77;;;6.57;;
2912;SDS011;1466;48.778;9.166;2022-10-22T16:04:55;21.50;;;7.23;;
2912;SDS011;1466;48.778;9.166;2022-10-22T16:07:22;19.03;;;7.80;;
2912;SDS011;1466;48.778;9.166;2022-10-22T16:09:48;16.98;;;7.05;;
2912;SDS011;1466;48.778;9.166;2022-10-22T16:12:14;23.97;;;7.63;;
2912;SDS011;1466;48.778;9.166;2022-10-22T16:14:40;25.07;;;8.40;;
2912;SDS011;1466;48.778;9.166;2022-10-22T16:17:05;23.00;;;8.80;;
2912;SDS011;1466;48.778;9.166;2022-10-22T16:19:31;16.23;;;8.03;;
2912;SDS011;1466;48.778;9.166;2022-10-22T16:21:57;17.07;;;8.00;;
2912;SDS011;1466;48.778;9.166;2022-10-22T16:24:25;23.77;;;10.00;;
2912;SDS011;1466;48.778;9.166;2022-10-22T16:26:51;20.80;;;8.20;;
2912;SDS011;1466;48.778;9.166;2022-10-22T16:29:17;19.40;;;9.10;;
2912;SDS011;1466;48.778;9.166;2022-10-22T16:31:42;31.80;;;10.20;;
2912;SDS011;1466;48.778;9.166;2022-10-22T16:34:09;24.77;;;9.23;;
2912;SDS011;1466;48.778;9.166;2022-10-22T16:36:35;21.20;;;9.33;;
2912;SDS011;1466;48.778;9.166;2022-10-22T16:39:02;20.90;;;8.70;;
2912;SDS011;1466;48.778;9.166;2022-10-22T16:41:28;26.10;;;9.25;;
2912;SDS011;1466;48.778;9.166;2022-10-22T16:43:59;36.20;;;12.30;;
2912;SDS011;1466;48.778;9.166;2022-10-22T16:46:27;17.38;;;8.93;;
2912;SDS011;1466;48.778;9.166;2022-10-22T16:48:53;23.23;;;9.50;;
2912;SDS011;1466;48.778;9.166;2022-10-22T16:51:20;22.13;;;9.93;;
2912;SDS011;1466;48.778;9.166;2022-10-22T16:53:47;22.10;;;10.85;;
2912;SDS011;1466;48.778;9.166;2022-10-22T16:56:15;27.38;;;12.25;;
2912;SDS011;1466;48.778;9.166;2022-10-22T16:58:45;19.48;;;9.60;;
2912;SDS011;1466;48.778;9.166;2022-10-22T17:01:12;25.35;;;11.45;;
2912;SDS011;1466;48.778;9.166;2022-10-22T17:03:39;26.10;;;12.33;;
2912;SDS011;1466;48.778;9.166;2022-10-22T17:06:05;29.33;;;14.07;;
2912;SDS011;1466;48.778;9.166;2022-10-22T17:08:34;28.42;;;13.48;;
2912;SDS011;1466;48.778;9.166;2022-10-22T17:11:06;28.95;;;12.88;;
2912;SDS011;1466;48.778;9.166;2022-10-22T17:13:41;30.33;;;15.10;;
2912;SDS011;1466;48.778;9.166;2022-10-22T17:16:09;36.38;;;14.50;;
2912;SDS011;1466;48.778;9.166;2022-10-22T17:18:37;38.53;;;13.02;;
2912;SDS011;1466;48.778;9.166;2022-10-22T17:21:05;35.25;;;14.20;;
2912;SDS011;1466;48.778;9.166;2022-10-22T17:23:31;34.45;;;12.60;;
2912;SDS011;1466;48.778;9.166;2022-10-22T17:25:58;29.30;;;10.70;;